createdAt,value
2022-08-10T00:00:34.509Z,38.40
2022-08-10T00:02:40.736Z,38.28
2022-08-10T00:04:45.650Z,38.54
2022-08-10T00:06:50.609Z,38.62
2022-08-10T00:08:55.570Z,38.65
2022-08-10T00:11:00.841Z,38.88
2022-08-10T00:13:09.335Z,39.02
2022-08-10T00:15:44.682Z,38.90
2022-08-10T00:17:41.104Z,38.74
2022-08-10T00:20:03.082Z,39.68
2022-08-10T00:22:11.586Z,39.41
2022-08-10T00:24:21.997Z,39.64
2022-08-10T00:26:26.925Z,39.42
2022-08-10T00:28:54.812Z,39.59
2022-08-10T00:30:59.892Z,39.71
2022-08-10T00:33:04.942Z,39.85
2022-08-10T00:35:11.181Z,39.91
2022-08-10T00:37:17.402Z,40.32
2022-08-10T00:39:22.399Z,40.17
2022-08-10T00:41:27.398Z,40.08
2022-08-10T00:43:32.310Z,40.40
2022-08-10T00:45:39.867Z,40.57
2022-08-10T00:47:44.761Z,39.90
2022-08-10T00:49:50.540Z,40.33
2022-08-10T00:51:55.848Z,40.35
2022-08-10T00:54:00.796Z,40.34
2022-08-10T00:57:12.440Z,39.90
2022-08-10T00:58:31.468Z,40.39
2022-08-10T01:00:39.661Z,40.99
2022-08-10T01:02:44.557Z,40.97
2022-08-10T01:04:59.494Z,41.24
2022-08-10T01:07:19.888Z,40.91
2022-08-10T01:09:35.044Z,40.84
2022-08-10T01:12:39.788Z,41.60
2022-08-10T01:14:20.644Z,42.16
2022-08-10T01:16:32.744Z,42.06
2022-08-10T01:18:45.741Z,41.99
2022-08-10T01:21:09.503Z,41.89
2022-08-10T01:23:48.111Z,42.47
2022-08-10T01:26:11.947Z,42.46
2022-08-10T01:28:28.142Z,42.69
2022-08-10T01:30:36.468Z,42.73
2022-08-10T01:32:50.233Z,43.13
2022-08-10T01:35:00.399Z,42.50
2022-08-10T01:37:09.469Z,43.06
2022-08-10T01:39:20.275Z,42.62
2022-08-10T01:41:29.362Z,42.94
2022-08-10T01:43:57.116Z,42.59
2022-08-10T01:46:13.702Z,43.06
2022-08-10T01:48:31.273Z,42.99
2022-08-10T01:50:59.814Z,43.13
2022-08-10T01:53:10.124Z,42.79
2022-08-10T01:55:17.996Z,42.84
2022-08-10T01:57:25.125Z,43.36
2022-08-10T01:59:35.534Z,42.96
2022-08-10T02:01:48.277Z,42.89
2022-08-10T02:04:05.165Z,42.72
2022-08-10T02:06:12.176Z,43.02
2022-08-10T02:08:20.274Z,43.37
2022-08-10T02:10:27.637Z,43.19
2022-08-10T02:12:36.387Z,42.78
2022-08-10T02:14:45.090Z,43.43
2022-08-10T02:16:54.813Z,43.19
2022-08-10T02:19:02.929Z,43.80
2022-08-10T02:21:09.735Z,43.73
2022-08-10T02:23:18.450Z,43.89
2022-08-10T02:25:41.293Z,43.72
2022-08-10T02:27:50.089Z,44.02
2022-08-10T02:29:56.590Z,44.09
2022-08-10T02:32:05.707Z,43.72
2022-08-10T02:34:15.703Z,44.00
2022-08-10T02:36:22.766Z,44.00
2022-08-10T02:38:58.179Z,43.96
2022-08-10T02:45:02.894Z,43.97
2022-08-10T02:45:27.433Z,44.39
2022-08-10T02:46:10.615Z,44.31
2022-08-10T02:48:22.694Z,44.23
2022-08-10T02:50:30.704Z,44.14
2022-08-10T02:52:45.216Z,44.25
2022-08-10T02:54:56.248Z,44.81
2022-08-10T02:57:08.377Z,44.65
2022-08-10T02:59:17.595Z,44.77
2022-08-10T03:01:26.522Z,44.92
2022-08-10T03:03:42.444Z,45.22
2022-08-10T03:05:50.517Z,45.23
2022-08-10T03:08:02.916Z,45.28
2022-08-10T03:10:13.131Z,45.13
2022-08-10T03:12:37.479Z,44.96
2022-08-10T03:14:44.717Z,45.17
2022-08-10T03:16:49.783Z,44.85
2022-08-10T03:18:59.043Z,45.66
2022-08-10T03:21:11.838Z,45.45
2022-08-10T03:23:19.612Z,45.82
2022-08-10T03:25:27.046Z,45.81
2022-08-10T03:27:33.369Z,45.66
2022-08-10T03:30:31.616Z,45.73
2022-08-10T03:32:05.037Z,45.79
2022-08-10T03:34:22.192Z,45.59
2022-08-10T03:36:41.560Z,46.11
2022-08-10T03:38:51.896Z,45.92
2022-08-10T03:40:59.875Z,45.75
2022-08-10T03:43:06.279Z,45.86
2022-08-10T03:45:13.261Z,45.77
2022-08-10T03:47:20.165Z,45.88
2022-08-10T03:49:29.727Z,45.84
2022-08-10T03:51:36.175Z,46.15
2022-08-10T03:54:04.604Z,46.38
2022-08-10T03:56:28.332Z,46.41
2022-08-10T03:58:32.826Z,46.17
2022-08-10T04:00:39.154Z,46.30
2022-08-10T04:02:48.343Z,46.53
2022-08-10T04:04:56.094Z,46.64
2022-08-10T04:07:02.084Z,46.53
2022-08-10T04:09:07.918Z,46.42
2022-08-10T04:11:13.220Z,46.48
2022-08-10T04:13:18.253Z,46.52
2022-08-10T04:15:24.764Z,46.94
2022-08-10T04:18:01.415Z,46.88
2022-08-10T04:20:00.034Z,47.10
2022-08-10T04:22:09.878Z,46.61
2022-08-10T04:24:26.851Z,46.91
2022-08-10T04:26:35.307Z,47.18
2022-08-10T04:28:40.626Z,46.83
2022-08-10T04:30:47.450Z,46.94
2022-08-10T04:32:56.481Z,46.87
2022-08-10T04:35:07.640Z,46.44
2022-08-10T04:37:13.892Z,46.44
2022-08-10T04:39:19.502Z,46.47
2022-08-10T04:41:24.663Z,46.21
2022-08-10T04:43:29.584Z,46.35
2022-08-10T04:45:48.433Z,46.11
2022-08-10T04:48:00.367Z,46.01
2022-08-10T04:50:09.855Z,46.31
2022-08-10T04:52:14.995Z,46.24
2022-08-10T04:54:19.907Z,46.15
2022-08-10T04:56:31.725Z,46.14
2022-08-10T04:58:37.100Z,46.46
2022-08-10T05:00:42.038Z,46.53
2022-08-10T05:02:46.893Z,46.63
2022-08-10T05:04:51.754Z,46.27
2022-08-10T05:06:59.462Z,46.30
2022-08-10T05:09:04.384Z,46.22
2022-08-10T05:11:09.276Z,46.40
2022-08-10T05:13:14.199Z,45.99
2022-08-10T05:15:20.139Z,45.96
2022-08-10T05:17:25.754Z,46.15
2022-08-10T05:20:04.045Z,45.70
2022-08-10T05:22:04.515Z,45.94
2022-08-10T05:24:12.688Z,45.75
2022-08-10T05:26:17.558Z,45.71
2022-08-10T05:28:23.612Z,45.66
2022-08-10T05:30:32.708Z,45.59
2022-08-10T05:32:56.869Z,45.78
2022-08-10T05:35:03.241Z,45.60
2022-08-10T05:38:09.660Z,45.81
2022-08-10T05:39:38.785Z,45.50
2022-08-10T05:41:46.914Z,45.40
2022-08-10T05:43:53.975Z,45.13
2022-08-10T05:46:16.902Z,44.79
2022-08-10T05:48:57.769Z,44.82
2022-08-10T05:50:49.009Z,44.98
2022-08-10T05:52:54.039Z,44.70
2022-08-10T05:55:03.075Z,44.66
2022-08-10T05:57:08.239Z,44.42
2022-08-10T05:59:13.843Z,44.12
2022-08-10T06:01:21.801Z,43.99
2022-08-10T06:03:30.579Z,43.18
2022-08-10T06:05:41.343Z,43.71
2022-08-10T06:07:51.685Z,43.36
2022-08-10T06:09:59.585Z,43.14
2022-08-10T06:12:26.710Z,43.36
2022-08-10T06:14:53.127Z,43.55
2022-08-10T06:17:05.882Z,43.76
2022-08-10T06:19:11.203Z,43.67
2022-08-10T06:21:20.689Z,43.71
2022-08-10T06:23:27.774Z,43.77
2022-08-10T06:26:11.038Z,43.91
2022-08-10T06:28:03.721Z,43.29
2022-08-10T06:30:20.009Z,43.09
2022-08-10T06:32:28.727Z,42.97
2022-08-10T06:34:36.692Z,42.74
2022-08-10T06:36:44.365Z,42.95
2022-08-10T06:38:50.190Z,42.64
2022-08-10T06:40:59.818Z,42.13
2022-08-10T06:43:10.965Z,42.52
2022-08-10T06:45:20.023Z,41.92
2022-08-10T06:47:29.377Z,41.68
2022-08-10T06:49:35.550Z,41.77
2022-08-10T06:51:45.070Z,41.75
2022-08-10T06:54:05.650Z,41.28
2022-08-10T06:56:17.506Z,41.44
2022-08-10T06:58:28.144Z,40.80
2022-08-10T07:00:34.760Z,40.68
2022-08-10T07:02:47.076Z,40.25
2022-08-10T07:04:57.410Z,40.25
2022-08-10T07:07:06.160Z,40.21
2022-08-10T07:09:15.305Z,39.47
2022-08-10T07:11:22.981Z,39.48
2022-08-10T07:14:14.146Z,39.39
2022-08-10T07:16:00.891Z,39.38
2022-08-10T07:18:07.106Z,39.59
2022-08-10T07:20:17.479Z,38.16
2022-08-10T07:23:55.023Z,37.76
2022-08-10T07:24:52.067Z,37.65
2022-08-10T07:26:59.268Z,37.47
2022-08-10T07:29:09.009Z,37.34
2022-08-10T07:31:56.398Z,36.99
2022-08-10T07:34:02.759Z,37.33
2022-08-10T07:36:09.214Z,36.69
2022-08-10T07:38:19.853Z,36.64
2022-08-10T07:40:26.489Z,36.16
2022-08-10T07:42:32.689Z,35.73
2022-08-10T07:44:42.587Z,35.74
2022-08-10T07:46:52.451Z,35.85
2022-08-10T07:49:16.108Z,35.76
2022-08-10T07:51:26.155Z,35.46
2022-08-10T07:53:35.395Z,35.44
2022-08-10T07:56:03.554Z,35.30
2022-08-10T07:58:09.929Z,35.14
2022-08-10T08:00:19.205Z,35.48
2022-08-10T08:02:30.872Z,35.68
2022-08-10T08:04:41.719Z,34.88
2022-08-10T08:06:48.268Z,34.59
2022-08-10T08:08:53.773Z,34.25
2022-08-10T08:11:00.841Z,34.67
2022-08-10T08:13:07.379Z,34.23
2022-08-10T08:16:17.456Z,34.53
2022-08-10T08:17:44.577Z,33.94
2022-08-10T08:20:00.448Z,34.47
2022-08-10T08:24:09.712Z,34.00
2022-08-10T08:24:36.443Z,34.08
2022-08-10T08:26:43.744Z,34.03
2022-08-10T08:28:55.652Z,33.40
2022-08-10T08:31:01.802Z,33.75
2022-08-10T08:33:09.979Z,33.50
2022-08-10T08:35:25.866Z,33.51
2022-08-10T08:38:32.852Z,33.58
2022-08-10T08:39:58.265Z,33.28
2022-08-10T08:42:38.488Z,32.89
2022-08-10T08:44:58.958Z,32.87
2022-08-10T08:48:04.190Z,31.64
2022-08-10T08:50:10.208Z,31.55
2022-08-10T08:52:29.020Z,31.08
2022-08-10T08:54:47.094Z,30.65
2022-08-10T08:57:01.241Z,30.94
2022-08-10T08:59:24.635Z,30.72
2022-08-10T09:01:47.982Z,30.26
2022-08-10T09:04:19.888Z,29.56
2022-08-10T09:06:55.364Z,29.50
2022-08-10T09:09:19.702Z,29.18
2022-08-10T09:11:41.283Z,29.18
2022-08-10T09:13:56.781Z,28.47
2022-08-10T09:16:11.555Z,28.84
2022-08-10T09:18:22.484Z,29.03
2022-08-10T09:20:37.186Z,28.75
2022-08-10T09:22:51.661Z,28.64
2022-08-10T09:25:00.823Z,28.81
2022-08-10T09:27:12.001Z,28.56
2022-08-10T09:29:23.591Z,28.98
2022-08-10T09:31:39.315Z,27.91
2022-08-10T09:36:25.143Z,28.14
2022-08-10T09:36:33.002Z,26.92
2022-08-10T09:38:54.993Z,26.86
2022-08-10T09:41:13.033Z,27.72
2022-08-10T09:43:28.496Z,27.63
2022-08-10T09:45:42.936Z,28.49
2022-08-10T09:48:02.127Z,28.07
2022-08-10T09:50:23.346Z,27.89
2022-08-10T09:52:37.694Z,27.46
2022-08-10T09:54:56.053Z,26.75
2022-08-10T09:59:59.930Z,26.03
2022-08-10T10:02:21.508Z,26.05
2022-08-10T10:04:40.264Z,26.01
2022-08-10T10:06:54.892Z,25.41
2022-08-10T10:09:11.047Z,25.75
2022-08-10T10:11:29.347Z,25.63
2022-08-10T10:14:02.505Z,24.88
2022-08-10T10:16:26.295Z,24.69
2022-08-10T10:18:45.162Z,22.58
2022-08-10T10:20:58.445Z,23.43
2022-08-10T10:23:15.392Z,23.40
2022-08-10T10:25:49.830Z,23.15
2022-08-10T10:28:03.651Z,22.67
2022-08-10T10:30:13.458Z,21.86
2022-08-10T10:32:24.976Z,21.66
2022-08-10T10:34:43.630Z,21.09
2022-08-10T10:36:52.376Z,20.80
2022-08-10T10:38:58.231Z,20.63
2022-08-10T10:41:11.780Z,20.08
2022-08-10T10:43:45.189Z,21.10
2022-08-10T10:46:01.967Z,21.55
2022-08-10T10:48:29.040Z,22.12
2022-08-10T10:50:42.064Z,22.53
2022-08-10T10:52:54.422Z,23.18
2022-08-10T10:55:11.926Z,22.85
2022-08-10T10:58:00.492Z,22.58
2022-08-10T11:00:03.669Z,22.46
2022-08-10T11:02:21.994Z,23.04
2022-08-10T11:04:30.072Z,22.93
2022-08-10T11:06:48.052Z,22.61
2022-08-10T11:08:58.888Z,22.63
2022-08-10T11:11:59.658Z,22.72
2022-08-10T11:14:28.535Z,22.18
2022-08-10T11:16:16.807Z,22.31
2022-08-10T11:18:33.800Z,22.46
2022-08-10T11:20:45.158Z,21.86
2022-08-10T11:23:06.770Z,22.30
2022-08-10T11:25:17.678Z,22.32
2022-08-10T11:27:34.872Z,22.89
2022-08-10T11:29:49.517Z,22.45
2022-08-10T11:32:05.757Z,22.50
2022-08-10T11:34:48.698Z,22.97
2022-08-10T11:36:48.082Z,22.53
2022-08-10T11:39:18.422Z,22.35
2022-08-10T11:42:09.117Z,22.26
2022-08-10T11:44:06.258Z,22.91
2022-08-10T11:46:28.443Z,22.18
2022-08-10T11:48:53.125Z,22.28
2022-08-10T11:51:04.360Z,21.82
2022-08-10T11:53:20.348Z,21.57
2022-08-10T11:55:27.249Z,21.48
2022-08-10T11:57:54.642Z,21.90
2022-08-10T11:59:58.256Z,21.51
2022-08-10T12:02:05.166Z,21.08
2022-08-10T12:04:13.898Z,20.93
2022-08-10T12:06:45.482Z,20.96
2022-08-10T12:10:07.324Z,20.94
2022-08-10T12:11:24.681Z,21.25
2022-08-10T12:13:34.213Z,21.33
2022-08-10T12:15:46.450Z,21.25
2022-08-10T12:17:56.555Z,20.73
2022-08-10T12:20:09.601Z,20.55
2022-08-10T12:22:18.077Z,21.02
2022-08-10T12:24:36.349Z,20.65
2022-08-10T12:26:47.545Z,20.53
2022-08-10T12:28:58.971Z,20.74
2022-08-10T12:31:09.269Z,20.52
2022-08-10T12:33:24.215Z,20.37
2022-08-10T12:35:40.140Z,20.63
2022-08-10T12:37:54.945Z,20.47
2022-08-10T12:40:33.905Z,20.91
2022-08-10T12:42:41.077Z,20.62
2022-08-10T12:44:52.810Z,20.94
2022-08-10T12:47:05.762Z,20.68
2022-08-10T12:49:24.023Z,20.55
2022-08-10T12:51:33.823Z,20.20
2022-08-10T12:53:52.949Z,20.46
2022-08-10T12:56:01.709Z,20.49
2022-08-10T12:58:57.173Z,20.72
2022-08-10T13:00:53.834Z,19.86
2022-08-10T13:03:04.718Z,19.99
2022-08-10T13:05:13.768Z,20.41
2022-08-10T13:08:24.284Z,20.88
2022-08-10T13:09:54.778Z,20.90
2022-08-10T13:12:35.886Z,20.64
2022-08-10T13:14:34.192Z,21.02
2022-08-10T13:16:40.068Z,21.49
2022-08-10T13:18:46.720Z,21.19
2022-08-10T13:20:54.798Z,21.55
2022-08-10T13:23:06.136Z,20.67
2022-08-10T13:25:13.466Z,20.53
2022-08-10T13:27:25.972Z,20.48
2022-08-10T13:29:50.978Z,20.19
2022-08-10T13:32:08.908Z,19.95
2022-08-10T13:34:42.809Z,20.07
2022-08-10T13:36:52.070Z,19.82
2022-08-10T13:39:02.784Z,19.87
2022-08-10T13:41:08.855Z,20.10
2022-08-10T13:43:15.253Z,20.05
2022-08-10T13:45:23.092Z,19.62
2022-08-10T13:47:42.400Z,19.20
2022-08-10T13:49:59.013Z,19.39
2022-08-10T13:52:06.308Z,19.16
2022-08-10T13:54:14.611Z,19.06
2022-08-10T13:56:20.546Z,18.87
2022-08-10T13:58:29.240Z,19.21
2022-08-10T14:00:38.519Z,19.07
2022-08-10T14:02:48.920Z,18.83
2022-08-10T14:04:55.476Z,19.15
2022-08-10T14:07:03.257Z,19.11
2022-08-10T14:09:15.914Z,18.83
2022-08-10T14:11:23.217Z,18.79
2022-08-10T14:13:30.643Z,18.21
2022-08-10T14:15:38.526Z,18.42
2022-08-10T14:17:45.220Z,18.06
2022-08-10T14:19:58.725Z,17.97
2022-08-10T14:22:04.968Z,17.98
2022-08-10T14:24:26.054Z,17.67
2022-08-10T14:26:33.107Z,17.66
2022-08-10T14:28:42.771Z,17.62
2022-08-10T14:30:50.250Z,17.63
2022-08-10T14:32:56.776Z,18.07
2022-08-10T14:36:21.752Z,17.47
2022-08-10T14:37:37.870Z,17.61
2022-08-10T14:39:50.575Z,17.89
2022-08-10T14:42:03.156Z,18.05
2022-08-10T14:44:16.047Z,17.69
2022-08-10T14:46:23.807Z,17.79
2022-08-10T14:48:32.955Z,18.26
2022-08-10T14:50:38.778Z,17.94
2022-08-10T14:53:02.543Z,17.62
2022-08-10T14:55:19.728Z,18.09
2022-08-10T14:58:16.877Z,17.56
2022-08-10T15:00:25.444Z,18.02
2022-08-10T15:02:38.603Z,17.86
2022-08-10T15:04:47.380Z,17.66
2022-08-10T15:06:57.357Z,17.22
2022-08-10T15:09:12.685Z,17.32
2022-08-10T15:12:15.571Z,17.12
2022-08-10T15:14:14.769Z,17.60
2022-08-10T15:16:20.732Z,17.25
2022-08-10T15:18:27.855Z,16.99
2022-08-10T15:20:34.763Z,17.18
2022-08-10T15:22:40.726Z,16.99
2022-08-10T15:25:04.758Z,16.88
2022-08-10T15:27:14.296Z,16.72
2022-08-10T15:29:25.728Z,16.55
2022-08-10T15:31:34.964Z,16.19
2022-08-10T15:34:04.247Z,16.77
2022-08-10T15:36:24.274Z,16.48
2022-08-10T15:38:36.269Z,16.41
2022-08-10T15:40:50.401Z,16.56
2022-08-10T15:43:05.789Z,15.98
2022-08-10T15:45:25.806Z,16.11
2022-08-10T15:47:46.271Z,16.70
2022-08-10T15:49:56.216Z,17.75
2022-08-10T15:52:06.843Z,17.97
2022-08-10T15:54:16.099Z,18.41
2022-08-10T15:56:28.190Z,18.27
2022-08-10T15:58:41.279Z,18.45
2022-08-10T16:00:52.020Z,18.80
2022-08-10T16:03:01.606Z,18.58
2022-08-10T16:05:14.277Z,18.12
2022-08-10T16:07:23.052Z,18.21
2022-08-10T16:10:10.818Z,18.73
2022-08-10T16:12:29.338Z,18.38
2022-08-10T16:14:40.455Z,19.15
2022-08-10T16:16:49.353Z,19.38
2022-08-10T16:18:56.539Z,19.40
2022-08-10T16:21:03.737Z,19.41
2022-08-10T16:23:13.967Z,19.72
2022-08-10T16:25:20.673Z,19.88
2022-08-10T16:27:29.333Z,19.90
2022-08-10T16:29:55.967Z,20.15
2022-08-10T16:32:04.337Z,19.89
2022-08-10T16:34:17.195Z,20.03
2022-08-10T16:36:23.547Z,20.86
2022-08-10T16:38:29.876Z,21.07
2022-08-10T16:40:35.822Z,20.85
2022-08-10T16:42:45.133Z,20.93
2022-08-10T16:44:59.714Z,20.82
2022-08-10T16:47:06.389Z,21.17
2022-08-10T16:49:12.908Z,21.28
2022-08-10T16:51:23.353Z,21.80
2022-08-10T16:53:30.210Z,21.95
2022-08-10T16:55:47.496Z,21.64
2022-08-10T16:57:58.642Z,21.93
2022-08-10T17:00:09.369Z,21.61
2022-08-10T17:02:18.595Z,22.29
2022-08-10T17:04:26.285Z,22.24
2022-08-10T17:06:33.712Z,21.85
2022-08-10T17:08:48.141Z,22.29
2022-08-10T17:10:54.907Z,22.41
2022-08-10T17:13:01.402Z,22.57
2022-08-10T17:15:11.966Z,22.31
2022-08-10T17:17:22.598Z,22.44
2022-08-10T17:19:29.444Z,22.65
2022-08-10T17:21:40.937Z,23.25
2022-08-10T17:23:59.140Z,22.79
2022-08-10T17:26:12.212Z,22.88
2022-08-10T17:28:33.215Z,22.71
2022-08-10T17:30:58.178Z,22.81
2022-08-10T17:33:07.912Z,23.17
2022-08-10T17:35:23.353Z,22.53
2022-08-10T17:37:33.550Z,22.79
2022-08-10T17:39:44.270Z,23.06
2022-08-10T17:41:52.396Z,22.72
2022-08-10T17:44:03.233Z,22.83
2022-08-10T17:46:14.971Z,23.10
2022-08-10T17:48:23.766Z,23.34
2022-08-10T17:50:33.167Z,23.26
2022-08-10T17:52:38.762Z,23.53
2022-08-10T17:54:45.591Z,23.67
2022-08-10T17:56:54.225Z,24.02
2022-08-10T17:59:03.077Z,23.89
2022-08-10T18:01:41.024Z,23.90
2022-08-10T18:03:39.423Z,24.20
2022-08-10T18:05:45.970Z,24.31
2022-08-10T18:07:55.943Z,24.53
2022-08-10T18:10:03.684Z,24.48
2022-08-10T18:12:17.854Z,25.11
2022-08-10T18:14:24.964Z,25.36
2022-08-10T18:16:34.805Z,24.96
2022-08-10T18:18:41.394Z,25.22
2022-08-10T18:20:46.509Z,25.39
2022-08-10T18:22:53.382Z,25.68
2022-08-10T18:25:00.882Z,25.40
2022-08-10T18:27:08.446Z,25.40
2022-08-10T18:29:19.398Z,25.61
2022-08-10T18:31:27.986Z,25.31
2022-08-10T18:33:38.643Z,25.82
2022-08-10T18:35:46.727Z,25.45
2022-08-10T18:37:54.761Z,25.53
2022-08-10T18:40:05.061Z,25.67
2022-08-10T18:42:15.125Z,25.89
2022-08-10T18:44:23.912Z,26.17
2022-08-10T18:46:32.672Z,25.62
2022-08-10T18:48:44.903Z,26.02
2022-08-10T18:50:53.585Z,25.97
2022-08-10T18:53:03.741Z,26.10
2022-08-10T18:55:24.579Z,26.38
2022-08-10T18:57:42.299Z,26.40
2022-08-10T19:00:18.410Z,26.69
2022-08-10T19:02:40.696Z,26.63
2022-08-10T19:05:07.055Z,26.28
2022-08-10T19:07:52.270Z,26.81
2022-08-10T19:10:11.299Z,27.29
2022-08-10T19:12:33.671Z,26.97
2022-08-10T19:14:45.148Z,27.08
2022-08-10T19:17:09.972Z,27.60
2022-08-10T19:19:28.897Z,27.29
2022-08-10T19:21:44.500Z,27.55
2022-08-10T19:23:58.344Z,27.59
2022-08-10T19:26:37.998Z,27.46
2022-08-10T19:28:53.454Z,27.79
2022-08-10T19:31:05.730Z,27.66
2022-08-10T19:33:25.243Z,28.03
2022-08-10T19:36:03.928Z,28.10
2022-08-10T19:38:32.882Z,28.16
2022-08-10T19:40:45.923Z,28.38
2022-08-10T19:42:59.164Z,28.62
2022-08-10T19:45:55.463Z,28.62
2022-08-10T19:47:47.924Z,28.68
2022-08-10T19:50:00.881Z,28.83
2022-08-10T19:52:12.411Z,29.02
2022-08-10T19:54:27.757Z,29.07
2022-08-10T19:56:45.227Z,29.27
2022-08-10T19:58:59.352Z,29.20
2022-08-10T20:01:07.002Z,29.38
2022-08-10T20:03:21.819Z,29.17
2022-08-10T20:05:35.246Z,29.49
2022-08-10T20:07:49.949Z,29.67
2022-08-10T20:10:06.822Z,29.88
2022-08-10T20:12:21.604Z,29.83
2022-08-10T20:14:32.640Z,29.70
2022-08-10T20:16:39.961Z,30.13
2022-08-10T20:18:50.566Z,30.44
2022-08-10T20:21:01.923Z,30.27
2022-08-10T20:23:20.995Z,30.48
2022-08-10T20:25:32.357Z,30.78
2022-08-10T20:28:00.294Z,30.64
2022-08-10T20:30:09.795Z,30.57
2022-08-10T20:32:20.627Z,30.69
2022-08-10T20:34:32.998Z,30.76
2022-08-10T20:36:50.001Z,30.90
2022-08-10T20:39:06.383Z,30.92
2022-08-10T20:41:31.351Z,31.06
2022-08-10T20:43:42.399Z,31.06
2022-08-10T20:46:09.443Z,31.53
2022-08-10T20:48:21.557Z,31.19
2022-08-10T20:50:37.017Z,31.47
2022-08-10T20:52:44.697Z,31.46
2022-08-10T20:54:55.284Z,31.76
2022-08-10T20:57:56.659Z,31.82
2022-08-10T21:00:04.153Z,31.68
2022-08-10T21:02:33.470Z,31.99
2022-08-10T21:04:53.384Z,32.25
2022-08-10T21:07:28.170Z,32.22
2022-08-10T21:10:04.590Z,32.35
2022-08-10T21:12:39.114Z,32.21
2022-08-10T21:14:52.540Z,32.52
2022-08-10T21:17:15.986Z,32.47
2022-08-10T21:19:37.548Z,32.96
2022-08-10T21:24:25.655Z,32.89
2022-08-10T21:25:41.672Z,32.63
2022-08-10T21:26:45.770Z,32.74
2022-08-10T21:29:13.047Z,33.10
2022-08-10T21:31:41.688Z,33.27
2022-08-10T21:33:55.526Z,33.68
2022-08-10T21:36:09.909Z,33.68
2022-08-10T21:38:21.563Z,33.80
2022-08-10T21:40:35.519Z,33.81
2022-08-10T21:43:02.890Z,34.19
2022-08-10T21:45:57.896Z,33.96
2022-08-10T21:48:20.285Z,33.93
2022-08-10T21:50:58.386Z,34.08
2022-08-10T21:53:43.948Z,34.32
2022-08-10T21:56:14.228Z,34.08
2022-08-10T21:58:38.851Z,34.21
2022-08-10T22:01:06.798Z,34.33
2022-08-10T22:03:27.491Z,34.29
2022-08-10T22:06:02.632Z,34.81
2022-08-10T22:08:20.311Z,34.50
2022-08-10T22:10:42.296Z,34.80
2022-08-10T22:13:02.362Z,34.83
2022-08-10T22:15:22.867Z,34.61
2022-08-10T22:18:10.173Z,34.51
2022-08-10T22:20:32.350Z,34.82
2022-08-10T22:22:58.755Z,34.79
2022-08-10T22:25:19.019Z,35.03
2022-08-10T22:27:47.166Z,34.88
2022-08-10T22:30:10.255Z,34.98
2022-08-10T22:32:40.490Z,35.07
2022-08-10T22:35:30.662Z,34.93
2022-08-10T22:37:56.792Z,35.19
2022-08-10T22:40:17.290Z,35.50
2022-08-10T22:42:58.937Z,35.39
2022-08-10T22:45:24.922Z,35.22
2022-08-10T22:47:45.219Z,35.26
2022-08-10T22:49:53.922Z,35.55
2022-08-10T22:52:13.923Z,35.35
2022-08-10T22:54:36.561Z,35.59
2022-08-10T22:56:55.581Z,35.95
2022-08-10T22:59:00.649Z,35.97
2022-08-10T23:01:35.247Z,36.06
2022-08-10T23:03:49.880Z,35.97
2022-08-10T23:06:03.941Z,35.78
2022-08-10T23:08:29.620Z,35.86
2022-08-10T23:10:44.109Z,36.28
2022-08-10T23:12:52.513Z,36.18
2022-08-10T23:15:12.296Z,36.06
2022-08-10T23:18:01.235Z,36.21
2022-08-10T23:20:06.262Z,36.49
2022-08-10T23:22:16.668Z,36.28
2022-08-10T23:24:31.627Z,36.42
2022-08-10T23:26:39.268Z,36.66
2022-08-10T23:28:58.355Z,36.94
2022-08-10T23:31:13.931Z,36.51
2022-08-10T23:33:37.690Z,37.00
2022-08-10T23:36:30.965Z,36.92
2022-08-10T23:38:19.527Z,37.12
2022-08-10T23:40:25.715Z,36.80
2022-08-10T23:42:40.094Z,37.00
2022-08-10T23:44:47.026Z,36.74
2022-08-10T23:47:05.681Z,37.44
2022-08-10T23:49:14.555Z,37.06
2022-08-10T23:51:21.270Z,36.99
2022-08-10T23:53:34.556Z,37.22
2022-08-10T23:55:49.542Z,37.42
2022-08-10T23:57:59.618Z,37.39
